createdAt,value
2023-03-05T00:01:25.884Z,100677.03
2023-03-05T00:06:29.292Z,100676.66
2023-03-05T00:11:31.943Z,100673.63
2023-03-05T00:16:34.141Z,100668.34
2023-03-05T00:21:39.192Z,100663.13
2023-03-05T00:26:41.052Z,100666.69
2023-03-05T00:31:44.227Z,100652.09
2023-03-05T00:36:51.752Z,100656.34
2023-03-05T00:41:54.510Z,100648.88
2023-03-05T00:46:56.063Z,100649.03
2023-03-05T00:51:57.849Z,100650.72
2023-03-05T00:56:59.841Z,100639.69
2023-03-05T01:02:01.465Z,100634.44
2023-03-05T01:07:04.990Z,100629.03
2023-03-05T01:12:07.712Z,100624.25
2023-03-05T01:17:09.321Z,100615.84
2023-03-05T01:22:10.894Z,100612.97
2023-03-05T01:27:12.473Z,100609.38
2023-03-05T01:32:14.051Z,100599.56
2023-03-05T01:37:15.694Z,100605.50
2023-03-05T01:42:19.395Z,100599.84
2023-03-05T01:47:20.975Z,100588.66
2023-03-05T01:52:27.209Z,100588.19
2023-03-05T01:57:38.264Z,100589.22
2023-03-05T02:02:42.416Z,100587.34
2023-03-05T02:07:45.163Z,100577.50
2023-03-05T02:12:49.259Z,100574.81
2023-03-05T02:17:50.825Z,100569.59
2023-03-05T02:22:52.507Z,100571.44
2023-03-05T02:28:20.395Z,100564.81
2023-03-05T02:33:22.488Z,100569.03
2023-03-05T02:38:24.301Z,100564.44
2023-03-05T02:43:27.387Z,100558.00
2023-03-05T02:48:29.110Z,100548.16
2023-03-05T02:53:30.754Z,100549.00
2023-03-05T02:58:32.424Z,100546.03
2023-03-05T03:03:34.119Z,100534.38
2023-03-05T03:08:35.728Z,100542.06
2023-03-05T03:13:37.394Z,100535.31
2023-03-05T03:18:39.201Z,100530.41
2023-03-05T03:23:40.759Z,100527.78
2023-03-05T03:28:42.382Z,100520.00
2023-03-05T03:33:45.496Z,100524.09
2023-03-05T03:38:47.065Z,100526.34
2023-03-05T03:43:48.768Z,100510.25
2023-03-05T03:48:51.579Z,100515.00
2023-03-05T03:53:53.344Z,100508.59
2023-03-05T03:58:55.046Z,100505.91
2023-03-05T04:03:56.619Z,100501.69
2023-03-05T04:08:58.544Z,100500.19
2023-03-05T04:14:00.178Z,100500.19
2023-03-05T04:19:01.729Z,100489.38
2023-03-05T04:24:03.588Z,100481.59
2023-03-05T04:29:05.190Z,100477.38
2023-03-05T04:34:06.715Z,100482.59
2023-03-05T04:39:08.249Z,100479.72
2023-03-05T04:44:09.798Z,100477.56
2023-03-05T04:49:11.352Z,100478.56
2023-03-05T04:54:12.874Z,100470.44
2023-03-05T04:59:16.843Z,100467.94
2023-03-05T05:04:18.632Z,100467.56
2023-03-05T05:09:20.203Z,100463.19
2023-03-05T05:14:21.905Z,100458.94
2023-03-05T05:19:23.460Z,100457.63
2023-03-05T05:24:25.016Z,100455.78
2023-03-05T05:29:26.725Z,100449.50
2023-03-05T05:34:28.330Z,100452.88
2023-03-05T05:39:29.886Z,100449.50
2023-03-05T05:44:31.634Z,100457.44
2023-03-05T05:49:35.612Z,100458.09
2023-03-05T05:54:37.155Z,100465.03
2023-03-05T05:59:39.624Z,100457.56
2023-03-05T06:04:41.164Z,100464.69
2023-03-05T06:09:42.720Z,100455.16
2023-03-05T06:14:44.274Z,100463.78
2023-03-05T06:19:46.126Z,100460.22
2023-03-05T06:24:47.663Z,100455.16
2023-03-05T06:29:52.563Z,100457.69
2023-03-05T06:34:54.246Z,100459.84
2023-03-05T06:39:55.793Z,100454.09
2023-03-05T06:44:57.371Z,100457.47
2023-03-05T06:49:58.925Z,100461.31
2023-03-05T06:55:00.505Z,100460.59
2023-03-05T07:00:02.240Z,100452.06
2023-03-05T07:05:05.055Z,100452.94
2023-03-05T07:10:10.115Z,100455.56
2023-03-05T07:15:12.076Z,100449.34
2023-03-05T07:20:14.469Z,100454.97
2023-03-05T07:25:21.437Z,100449.38
2023-03-05T07:30:23.186Z,100441.16
2023-03-05T07:35:24.853Z,100432.56
2023-03-05T07:40:26.506Z,100427.03
2023-03-05T07:45:28.078Z,100424.03
2023-03-05T07:50:29.661Z,100423.34
2023-03-05T07:55:31.252Z,100423.16
2023-03-05T08:00:32.815Z,100421.63
2023-03-05T08:05:34.358Z,100416.72
2023-03-05T08:10:37.159Z,100409.94
2023-03-05T08:15:38.884Z,100397.38
2023-03-05T08:20:40.465Z,100388.91
2023-03-05T08:25:42.055Z,100385.72
2023-03-05T08:30:43.664Z,100381.41
2023-03-05T08:35:45.571Z,100377.25
2023-03-05T08:40:48.134Z,100369.16
2023-03-05T08:45:51.298Z,100364.00
2023-03-05T08:50:54.556Z,100368.03
2023-03-05T08:55:57.806Z,100351.66
2023-03-05T09:00:59.345Z,100352.53
2023-03-05T09:06:02.815Z,100336.63
2023-03-05T09:11:06.549Z,100333.50
2023-03-05T09:16:12.072Z,100314.88
2023-03-05T09:21:16.465Z,100323.03
2023-03-05T09:26:21.218Z,100309.75
2023-03-05T09:31:23.317Z,100322.09
2023-03-05T09:36:27.870Z,100305.56
2023-03-05T09:41:51.275Z,100298.47
2023-03-05T09:47:06.939Z,100304.38
2023-03-05T09:52:20.753Z,100302.72
2023-03-05T09:57:25.861Z,100305.50
2023-03-05T10:02:35.378Z,100299.38
2023-03-05T10:07:41.841Z,100302.56
2023-03-05T10:12:45.754Z,100299.66
2023-03-05T10:17:56.437Z,100295.53
2023-03-05T10:23:19.945Z,100285.47
2023-03-05T10:28:40.313Z,100275.81
2023-03-05T10:34:22.540Z,100276.22
2023-03-05T10:39:29.763Z,100268.88
2023-03-05T10:44:34.321Z,100253.97
2023-03-05T10:49:39.884Z,100246.63
2023-03-05T10:54:42.917Z,100234.28
2023-03-05T10:59:49.742Z,100231.19
2023-03-05T11:04:51.826Z,100225.94
2023-03-05T11:10:14.679Z,100231.59
2023-03-05T11:15:16.410Z,100232.00
2023-03-05T11:20:27.032Z,100210.63
2023-03-05T11:25:28.626Z,100208.06
2023-03-05T11:30:34.218Z,100185.75
2023-03-05T11:35:39.998Z,100180.41
2023-03-05T11:40:41.820Z,100178.31
2023-03-05T11:45:45.822Z,100172.63
2023-03-05T11:50:52.995Z,100158.06
2023-03-05T11:56:01.618Z,100158.56
2023-03-05T12:01:06.639Z,100160.50
2023-03-05T12:06:20.728Z,100156.94
2023-03-05T12:11:31.910Z,100136.41
2023-03-05T12:16:41.977Z,100133.44
2023-03-05T12:21:44.593Z,100128.81
2023-03-05T12:27:04.663Z,100114.97
2023-03-05T12:32:28.757Z,100106.19
2023-03-05T12:37:31.159Z,100102.13
2023-03-05T12:42:32.681Z,100089.28
2023-03-05T12:47:34.221Z,100073.38
2023-03-05T12:52:35.799Z,100064.41
2023-03-05T12:57:37.441Z,100061.38
2023-03-05T13:02:42.569Z,100058.53
2023-03-05T13:07:49.662Z,100069.03
2023-03-05T13:12:53.801Z,100063.59
2023-03-05T13:18:03.554Z,100065.06
2023-03-05T13:23:08.036Z,100066.34
2023-03-05T13:28:17.215Z,100063.81
2023-03-05T13:33:29.466Z,100069.47
2023-03-05T13:38:36.294Z,100055.66
2023-03-05T13:43:53.920Z,100057.75
2023-03-05T13:48:56.701Z,100061.50
2023-03-05T13:53:58.782Z,100056.06
2023-03-05T13:59:01.150Z,100048.53
2023-03-05T14:04:19.966Z,100037.66
2023-03-05T14:09:27.859Z,100041.44
2023-03-05T14:14:32.437Z,100040.38
2023-03-05T14:19:39.247Z,100028.44
2023-03-05T14:24:52.626Z,100026.31
2023-03-05T14:29:54.300Z,100022.16
2023-03-05T14:34:58.633Z,100022.13
2023-03-05T14:40:05.515Z,100009.78
2023-03-05T14:45:40.860Z,99994.72
2023-03-05T14:50:46.874Z,99995.38
2023-03-05T14:55:51.364Z,99991.38
2023-03-05T15:00:55.295Z,99986.34
2023-03-05T15:05:58.717Z,99980.69
2023-03-05T15:11:01.084Z,99978.41
2023-03-05T15:16:05.284Z,99970.44
2023-03-05T15:21:06.855Z,99967.72
2023-03-05T15:26:11.718Z,99968.97
2023-03-05T15:31:15.837Z,99956.66
2023-03-05T15:36:17.449Z,99953.31
2023-03-05T15:41:19.128Z,99949.34
2023-03-05T15:46:20.680Z,99942.66
2023-03-05T15:51:22.596Z,99946.00
2023-03-05T15:56:24.165Z,99929.25
2023-03-05T16:01:25.851Z,99928.00
2023-03-05T16:06:28.902Z,99929.47
2023-03-05T16:11:33.530Z,99915.88
2023-03-05T16:16:36.555Z,99911.88
2023-03-05T16:21:38.238Z,99912.09
2023-03-05T16:26:41.494Z,99906.22
2023-03-05T16:31:45.239Z,99905.19
2023-03-05T16:36:50.279Z,99899.53
2023-03-05T16:41:52.633Z,99895.34
2023-03-05T16:46:56.316Z,99891.38
2023-03-05T16:51:59.427Z,99897.81
2023-03-05T16:57:03.156Z,99892.59
2023-03-05T17:02:05.593Z,99885.25
2023-03-05T17:07:07.787Z,99888.41
2023-03-05T17:12:09.336Z,99885.84
2023-03-05T17:17:11.104Z,99880.22
2023-03-05T17:22:12.954Z,99882.28
2023-03-05T17:27:18.631Z,99885.59
2023-03-05T17:32:20.207Z,99887.28
2023-03-05T17:37:22.778Z,99897.25
2023-03-05T17:42:24.320Z,99899.78
2023-03-05T17:47:26.416Z,99903.13
2023-03-05T17:52:28.057Z,99888.91
2023-03-05T17:57:29.642Z,99891.41
2023-03-05T18:02:33.429Z,99892.66
2023-03-05T18:07:35.012Z,99889.28
2023-03-05T18:12:36.824Z,99884.50
2023-03-05T18:17:38.553Z,99878.03
2023-03-05T18:22:40.115Z,99886.34
2023-03-05T18:27:42.823Z,99882.78
2023-03-05T18:32:47.506Z,99879.66
2023-03-05T18:37:49.272Z,99873.97
2023-03-05T18:42:53.236Z,99870.25
2023-03-05T18:47:56.667Z,99872.50
2023-03-05T18:52:58.246Z,99863.75
2023-03-05T18:57:59.984Z,99864.34
2023-03-05T19:03:03.443Z,99862.28
2023-03-05T19:08:05.305Z,99863.31
2023-03-05T19:13:28.032Z,99851.78
2023-03-05T19:18:33.736Z,99854.47
2023-03-05T19:23:35.601Z,99861.94
2023-03-05T19:28:37.293Z,99859.63
2023-03-05T19:33:38.855Z,99862.28
2023-03-05T19:38:43.050Z,99849.78
2023-03-05T19:43:44.592Z,99852.50
2023-03-05T19:48:46.470Z,99842.66
2023-03-05T19:53:48.279Z,99829.09
2023-03-05T19:58:49.953Z,99835.34
2023-03-05T20:03:53.954Z,99829.28
2023-03-05T20:08:56.907Z,99829.88
2023-03-05T20:13:58.535Z,99829.03
2023-03-05T20:19:00.181Z,99820.72
2023-03-05T20:24:05.038Z,99816.34
2023-03-05T20:29:07.609Z,99809.84
2023-03-05T20:34:12.735Z,99810.84
2023-03-05T20:39:14.408Z,99804.59
2023-03-05T20:44:16.525Z,99805.78
2023-03-05T20:49:18.140Z,99795.31
2023-03-05T20:54:20.198Z,99793.22
2023-03-05T20:59:23.278Z,99790.97
2023-03-05T21:04:24.847Z,99777.19
2023-03-05T21:09:28.366Z,99773.63
2023-03-05T21:14:31.389Z,99769.47
2023-03-05T21:19:33.845Z,99759.03
2023-03-05T21:24:50.486Z,99757.72
2023-03-05T21:29:52.276Z,99754.84
2023-03-05T21:34:54.043Z,99745.06
2023-03-05T21:39:55.593Z,99739.38
2023-03-05T21:44:57.130Z,99733.97
2023-03-05T21:49:58.686Z,99727.94
2023-03-05T21:55:00.686Z,99705.22
2023-03-05T22:00:02.795Z,99703.28
2023-03-05T22:05:15.539Z,99696.81
2023-03-05T22:10:19.375Z,99693.66
2023-03-05T22:15:21.240Z,99680.72
2023-03-05T22:20:22.855Z,99676.34
2023-03-05T22:25:24.363Z,99670.28
2023-03-05T22:30:26.027Z,99660.47
2023-03-05T22:35:28.321Z,99655.94
2023-03-05T22:40:29.905Z,99652.16
2023-03-05T22:45:31.551Z,99637.16
2023-03-05T22:50:33.161Z,99628.84
2023-03-05T22:55:34.724Z,99632.13
2023-03-05T23:00:37.273Z,99625.25
2023-03-05T23:05:39.207Z,99626.06
2023-03-05T23:10:40.799Z,99622.28
2023-03-05T23:15:42.404Z,99616.59
2023-03-05T23:20:44.240Z,99613.69
2023-03-05T23:25:46.150Z,99604.97
2023-03-05T23:30:47.813Z,99602.41
2023-03-05T23:35:55.734Z,99594.47
2023-03-05T23:41:01.081Z,99594.25
2023-03-05T23:46:02.869Z,99583.44
2023-03-05T23:51:09.333Z,99583.38
2023-03-05T23:56:12.016Z,99586.09
